Time;durP1;ratioP1;P1;durP2;ratioP2;P2;SDS_P1;SDS_P2;PMS_P1;PMS_P2;Temp;Humidity;BMP_temperature;BMP_pressure;BME280_temperature;BME280_humidity;BME280_pressure;Samples;Min_cycle;Max_cycle;Signal;HPM_P1;HPM_P2
2021/12/03 00:01:15;;;;;;;6.88;1.50;;;2.90;99.90;;;;;;5012028;28;20125;-64
2021/12/03 00:03:41;;;;;;;9.25;1.52;;;;;;;;;;5013422;28;20038;-63
2021/12/03 00:06:07;;;;;;;5.18;1.75;;;2.70;99.90;;;;;;5012384;28;20042;-64
2021/12/03 00:08:33;;;;;;;5.78;1.30;;;;;;;;;;5012959;28;20432;-64
2021/12/03 00:11:01;;;;;;;5.43;1.40;;;2.30;99.90;;;;;;5013221;28;20041;-64
2021/12/03 00:13:28;;;;;;;4.85;1.40;;;;;;;;;;5012713;28;20420;-66
2021/12/03 00:15:56;;;;;;;6.10;1.48;;;;;;;;;;5009721;28;20052;-64
2021/12/03 00:18:22;;;;;;;6.53;1.52;;;;;;;;;;5012613;28;20459;-64
2021/12/03 00:20:49;;;;;;;5.70;1.30;;;;;;;;;;5013209;28;20046;-64
2021/12/03 00:23:15;;;;;;;3.72;1.40;;;;;;;;;;5003935;28;20501;-64
2021/12/03 00:25:41;;;;;;;4.60;1.50;;;2.70;99.90;;;;;;5012309;28;20131;-64
2021/12/03 00:28:07;;;;;;;6.13;1.40;;;;;;;;;;5012545;28;20113;-64
2021/12/03 00:30:34;;;;;;;3.28;1.10;;;2.80;99.90;;;;;;5013195;28;20041;-64
2021/12/03 00:32:59;;;;;;;6.25;1.88;;;2.60;99.90;;;;;;5012536;28;20169;-64
2021/12/03 00:35:25;;;;;;;7.55;1.40;;;2.80;99.90;;;;;;5012093;28;20094;-63
2021/12/03 00:37:52;;;;;;;5.72;1.40;;;;;;;;;;5010578;28;20037;-63
2021/12/03 00:40:21;;;;;;;6.10;1.40;;;;;;;;;;5011878;28;20049;-64
2021/12/03 00:42:47;;;;;;;4.38;1.58;;;;;;;;;;5011989;28;20388;-64
2021/12/03 00:45:14;;;;;;;5.40;1.25;;;;;;;;;;5011174;28;20106;-64
2021/12/03 00:47:41;;;;;;;5.75;1.30;;;2.70;99.90;;;;;;5012399;28;20133;-64
2021/12/03 00:50:08;;;;;;;6.80;1.30;;;;;;;;;;5011297;28;20108;-64
2021/12/03 00:52:34;;;;;;;4.20;1.08;;;;;;;;;;5006354;28;20048;-64
2021/12/03 00:55:00;;;;;;;8.18;1.30;;;;;;;;;;5011622;28;20038;-64
2021/12/03 00:57:26;;;;;;;7.22;1.40;;;;;;;;;;5011589;28;20132;-64
2021/12/03 00:59:52;;;;;;;3.47;1.15;;;2.70;99.90;;;;;;5012032;28;20137;-64
2021/12/03 01:02:17;;;;;;;6.28;1.30;;;2.70;99.90;;;;;;5011003;28;20056;-64
2021/12/03 01:04:46;;;;;;;7.45;1.75;;;2.60;99.90;;;;;;5010564;28;20649;-64
2021/12/03 01:07:12;;;;;;;6.00;1.20;;;;;;;;;;5007934;28;20164;-64
2021/12/03 01:09:38;;;;;;;5.10;1.23;;;2.70;99.90;;;;;;5011407;28;20545;-64
2021/12/03 01:12:04;;;;;;;8.68;1.63;;;2.60;99.90;;;;;;5011996;28;20136;-64
2021/12/03 01:14:30;;;;;;;4.82;1.25;;;;;;;;;;5026391;28;20508;-64
2021/12/03 01:16:56;;;;;;;5.03;1.20;;;;;;;;;;5011644;28;20187;-64
2021/12/03 01:19:22;;;;;;;6.85;1.30;;;;;;;;;;5011954;28;20046;-63
2021/12/03 01:21:48;;;;;;;5.53;1.27;;;;;;;;;;5001230;28;20041;-64
2021/12/03 01:24:14;;;;;;;6.95;1.73;;;;;;;;;;4991347;28;20166;-64
2021/12/03 01:26:42;;;;;;;6.75;1.10;;;;;;;;;;5011888;28;20033;-64
2021/12/03 01:29:07;;;;;;;7.43;1.40;;;2.90;99.90;;;;;;5006832;28;20205;-63
2021/12/03 01:31:34;;;;;;;4.65;1.20;;;;;;;;;;4987611;28;20464;-64
2021/12/03 01:33:59;;;;;;;8.50;3.08;;;3.00;99.90;;;;;;4992025;28;20074;-64
2021/12/03 01:36:25;;;;;;;6.78;1.85;;;;;;;;;;4989895;28;20085;-64
2021/12/03 01:38:51;;;;;;;4.65;1.20;;;;;;;;;;4992278;28;20046;-64
2021/12/03 01:41:17;;;;;;;6.07;1.05;;;;;;;;;;4991259;28;20097;-64
2021/12/03 01:43:44;;;;;;;5.00;1.25;;;;;;;;;;4990751;28;20073;-65
2021/12/03 01:46:12;;;;;;;7.43;1.67;;;3.20;99.90;;;;;;5008949;28;20084;-64
2021/12/03 01:48:39;;;;;;;9.55;1.58;;;2.90;99.90;;;;;;5011121;28;20130;-64
2021/12/03 01:51:05;;;;;;;4.90;1.63;;;;;;;;;;5011352;28;20069;-64
2021/12/03 01:53:34;;;;;;;6.47;1.15;;;3.20;99.90;;;;;;5011355;28;20096;-64
2021/12/03 01:56:02;;;;;;;5.18;1.20;;;;;;;;;;5010871;28;20045;-64
2021/12/03 01:58:27;;;;;;;7.20;1.40;;;3.20;99.90;;;;;;5007339;28;20100;-64
2021/12/03 02:00:55;;;;;;;4.13;1.20;;;;;;;;;;5006480;28;20516;-64
2021/12/03 02:03:26;;;;;;;4.28;1.23;;;;;;;;;;5011222;28;20072;-64
2021/12/03 02:05:52;;;;;;;9.98;1.70;;;;;;;;;;5010201;28;20100;-65
2021/12/03 02:08:18;;;;;;;4.53;1.00;;;3.30;99.90;;;;;;5011017;28;20076;-64
2021/12/03 02:10:44;;;;;;;9.40;2.45;;;3.20;99.90;;;;;;5010646;28;20061;-64
2021/12/03 02:13:11;;;;;;;4.22;1.42;;;;;;;;;;5009177;28;20038;-64
2021/12/03 02:15:37;;;;;;;8.80;1.95;;;;;;;;;;5004804;28;20042;-64
2021/12/03 02:18:04;;;;;;;5.57;1.13;;;;;;;;;;5010413;28;20046;-64
2021/12/03 02:20:30;;;;;;;7.60;1.52;;;;;;;;;;5010766;28;20088;-65
2021/12/03 02:22:56;;;;;;;3.78;1.17;;;;;;;;;;5010297;28;20205;-64
2021/12/03 02:25:23;;;;;;;4.47;1.10;;;;;;;;;;5010579;28;20038;-64
2021/12/03 02:27:51;;;;;;;6.53;1.20;;;3.50;99.90;;;;;;5010493;28;20176;-64
2021/12/03 02:30:17;;;;;;;5.55;1.23;;;3.30;99.90;;;;;;5003052;28;20560;-64
2021/12/03 02:32:45;;;;;;;6.40;1.27;;;3.50;99.90;;;;;;5009101;28;20165;-64
2021/12/03 02:35:11;;;;;;;6.40;1.40;;;;;;;;;;5009527;28;20033;-64
2021/12/03 02:37:36;;;;;;;5.00;1.35;;;3.40;99.90;;;;;;5010683;28;20050;-65
2021/12/03 02:40:05;;;;;;;5.28;1.33;;;4.00;99.90;;;;;;5008896;28;20456;-64
2021/12/03 02:42:31;;;;;;;4.15;1.15;;;;;;;;;;5010583;28;20042;-64
2021/12/03 02:44:57;;;;;;;6.13;1.55;;;3.60;99.90;;;;;;5023728;28;20045;-65
2021/12/03 02:47:23;;;;;;;5.50;1.10;;;;;;;;;;5010083;28;20038;-64
2021/12/03 02:49:49;;;;;;;7.72;1.40;;;;;;;;;;5010316;28;20081;-64
2021/12/03 02:52:15;;;;;;;4.60;1.30;;;3.40;99.90;;;;;;5007991;28;20053;-64
2021/12/03 02:54:41;;;;;;;7.40;1.38;;;;;;;;;;5010026;28;20104;-64
2021/12/03 02:57:07;;;;;;;4.72;1.10;;;;;;;;;;5009983;28;20048;-64
2021/12/03 02:59:33;;;;;;;7.10;1.85;;;;;;;;;;5006935;28;20470;-63
2021/12/03 03:02:01;;;;;;;7.30;1.58;;;3.40;99.90;;;;;;5006909;28;20072;-64
2021/12/03 03:04:27;;;;;;;7.35;1.30;;;;;;;;;;5008897;28;20458;-65
2021/12/03 03:06:53;;;;;;;5.28;1.38;;;;;;;;;;5010171;28;20497;-65
2021/12/03 03:09:19;;;;;;;3.70;1.20;;;;;;;;;;5008852;28;20042;-65
2021/12/03 03:11:45;;;;;;;8.27;1.35;;;;;;;;;;5008874;28;20099;-64
2021/12/03 03:14:12;;;;;;;7.03;1.33;;;;;;;;;;4999372;28;20049;-64
2021/12/03 03:16:38;;;;;;;5.10;1.30;;;;;;;;;;5008757;28;20470;-64
2021/12/03 03:19:11;;;;;;;5.88;1.30;;;;;;;;;;5009543;28;20078;-64
2021/12/03 03:21:37;;;;;;;6.65;1.35;;;3.30;99.90;;;;;;5010407;28;20044;-64
2021/12/03 03:24:04;;;;;;;4.97;1.15;;;;;;;;;;5010361;28;20069;-64
2021/12/03 03:26:30;;;;;;;7.70;1.60;;;3.30;99.90;;;;;;5009635;28;20092;-64
2021/12/03 03:28:57;;;;;;;6.60;1.77;;;;;;;;;;5006726;28;20038;-64
2021/12/03 03:31:23;;;;;;;5.82;1.60;;;;;;;;;;5010045;28;20047;-64
2021/12/03 03:33:49;;;;;;;7.22;1.83;;;;;;;;;;5009542;28;20046;-64
2021/12/03 03:36:16;;;;;;;6.43;1.30;;;;;;;;;;5009254;28;20034;-64
2021/12/03 03:38:42;;;;;;;8.18;1.75;;;;;;;;;;5010438;28;20164;-64
2021/12/03 03:41:08;;;;;;;6.43;1.63;;;;;;;;;;5009733;28;20038;-64
2021/12/03 03:43:34;;;;;;;8.00;1.80;;;;;;;;;;5004394;28;20091;-64
2021/12/03 03:46:00;;;;;;;7.78;1.83;;;;;;;;;;5009615;28;20365;-64
2021/12/03 03:48:26;;;;;;;8.05;2.10;;;;;;;;;;5013523;28;20053;-65
2021/12/03 03:50:52;;;;;;;8.45;1.88;;;;;;;;;;5013607;28;20444;-64
2021/12/03 03:53:18;;;;;;;9.35;2.22;;;;;;;;;;5013428;28;20042;-64
2021/12/03 03:55:45;;;;;;;7.63;2.50;;;;;;;;;;5013247;28;20042;-64
2021/12/03 03:58:11;;;;;;;8.70;2.83;;;;;;;;;;5006278;28;20456;-64
2021/12/03 04:00:42;;;;;;;7.88;2.70;;;;;;;;;;5012670;28;20034;-64
2021/12/03 04:03:09;;;;;;;9.68;2.70;;;;;;;;;;5005370;28;20038;-64
2021/12/03 04:05:35;;;;;;;6.82;2.80;;;;;;;;;;5013095;28;20029;-64
2021/12/03 04:08:01;;;;;;;7.72;2.67;;;;;;;;;;5012878;28;20045;-65
2021/12/03 04:10:27;;;;;;;10.57;3.13;;;3.20;99.90;;;;;;5011195;28;20408;-65
2021/12/03 04:12:53;;;;;;;8.25;2.60;;;;;;;;;;5009401;28;20050;-65
2021/12/03 04:15:19;;;;;;;7.40;2.42;;;3.30;99.90;;;;;;5010952;28;20085;-65
2021/12/03 04:17:45;;;;;;;6.57;2.63;;;3.40;99.90;;;;;;5013482;28;20408;-65
2021/12/03 04:20:12;;;;;;;9.05;2.90;;;;;;;;;;5012429;28;20508;-65
2021/12/03 04:22:39;;;;;;;8.75;2.28;;;;;;;;;;5012154;28;20049;-65
2021/12/03 04:25:05;;;;;;;6.43;2.47;;;;;;;;;;5011999;28;20444;-65
2021/12/03 04:27:31;;;;;;;9.43;2.65;;;3.30;99.90;;;;;;5009622;28;20049;-65
2021/12/03 04:29:59;;;;;;;6.43;2.63;;;;;;;;;;5008926;28;20038;-65
2021/12/03 04:32:25;;;;;;;9.05;3.10;;;;;;;;;;5012881;28;20225;-65
2021/12/03 04:34:51;;;;;;;7.97;2.70;;;;;;;;;;5007483;28;20048;-65
2021/12/03 04:37:17;;;;;;;8.45;2.20;;;;;;;;;;5012903;28;20385;-65
2021/12/03 04:39:43;;;;;;;7.13;2.03;;;;;;;;;;5012644;28;20060;-65
2021/12/03 04:42:09;;;;;;;13.65;3.38;;;;;;;;;;5012397;28;20038;-65
2021/12/03 04:44:37;;;;;;;9.43;2.25;;;;;;;;;;5006754;28;20033;-65
2021/12/03 04:47:03;;;;;;;9.18;3.20;;;3.50;99.90;;;;;;5012540;28;20443;-65
2021/12/03 04:49:30;;;;;;;8.50;2.13;;;;;;;;;;5012720;28;20049;-65
2021/12/03 04:51:56;;;;;;;11.63;2.45;;;;;;;;;;5012091;28;20413;-64
2021/12/03 04:54:22;;;;;;;6.60;2.35;;;;;;;;;;5011637;28;20535;-65
2021/12/03 04:56:54;;;;;;;10.43;2.80;;;3.10;99.90;;;;;;5012192;28;20038;-65
2021/12/03 04:59:20;;;;;;;6.68;2.38;;;;;;;;;;5005610;28;20100;-65
2021/12/03 05:01:46;;;;;;;7.75;2.05;;;;;;;;;;5012175;28;20042;-66
2021/12/03 05:04:12;;;;;;;6.47;2.25;;;;;;;;;;5011820;28;20042;-65
2021/12/03 05:06:55;;;;;;;5.18;2.13;;;3.80;99.90;;;;;;5012350;28;20042;-65
2021/12/03 05:09:21;;;;;;;6.47;2.13;;;;;;;;;;5011604;28;20049;-65
2021/12/03 05:11:47;;;;;;;7.95;2.65;;;;;;;;;;5010298;28;20044;-65
2021/12/03 05:14:16;;;;;;;6.60;2.13;;;3.70;99.90;;;;;;5002715;28;20041;-65
2021/12/03 05:16:45;;;;;;;8.45;2.03;;;;;;;;;;5011628;28;20451;-65
2021/12/03 05:19:11;;;;;;;6.22;1.73;;;;;;;;;;5011928;28;20558;-65
2021/12/03 05:21:36;;;;;;;8.23;2.35;;;3.90;99.90;;;;;;5011700;28;20042;-65
2021/12/03 05:24:03;;;;;;;8.23;1.98;;;;;;;;;;5012131;28;20037;-65
2021/12/03 05:26:32;;;;;;;7.50;1.60;;;;;;;;;;4994805;28;20046;-65
2021/12/03 05:28:58;;;;;;;4.63;1.52;;;;;;;;;;4988176;28;20101;-65
2021/12/03 05:31:24;;;;;;;9.90;1.95;;;4.10;99.90;;;;;;4981427;28;20482;-64
2021/12/03 05:33:50;;;;;;;8.57;1.55;;;;;;;;;;4976718;28;20081;-65
2021/12/03 05:36:15;;;;;;;7.78;1.33;;;3.90;99.90;;;;;;4979873;28;20042;-65
2021/12/03 05:38:42;;;;;;;5.72;1.48;;;;;;;;;;5001102;28;20033;-65
2021/12/03 05:41:07;;;;;;;6.15;1.58;;;;;;;;;;4993541;28;20060;-65
2021/12/03 05:43:33;;;;;;;6.50;1.70;;;;;;;;;;4995692;28;20228;-67
2021/12/03 05:45:59;;;;;;;6.00;1.52;;;;;;;;;;5007134;28;20042;-67
2021/12/03 05:48:25;;;;;;;5.78;1.63;;;3.50;99.90;;;;;;4974534;28;20137;-68
2021/12/03 05:50:51;;;;;;;5.10;1.67;;;3.40;99.90;;;;;;4977567;28;20042;-67
2021/12/03 05:53:17;;;;;;;7.38;2.10;;;3.40;99.90;;;;;;4977705;28;20113;-67
2021/12/03 05:55:43;;;;;;;5.93;1.77;;;3.40;99.90;;;;;;4983409;28;20048;-67
2021/12/03 05:58:09;;;;;;;10.45;1.98;;;;;;;;;;4983568;28;20155;-66
2021/12/03 06:00:37;;;;;;;8.57;1.88;;;;;;;;;;4983477;28;20038;-66
2021/12/03 06:03:04;;;;;;;9.38;2.22;;;;;;;;;;4981038;28;20113;-67
2021/12/03 06:05:30;;;;;;;8.35;2.42;;;;;;;;;;4980308;28;20034;-67
2021/12/03 06:07:57;;;;;;;9.45;3.15;;;;;;;;;;4993923;28;20038;-66
2021/12/03 06:10:23;;;;;;;8.00;2.25;;;;;;;;;;5007578;28;20049;-66
2021/12/03 06:12:50;;;;;;;14.13;2.72;;;3.00;99.90;;;;;;5003561;28;20092;-66
2021/12/03 06:15:17;;;;;;;7.60;2.63;;;3.30;99.90;;;;;;5008725;28;20065;-67
2021/12/03 06:17:42;;;;;;;13.38;3.92;;;3.60;99.90;;;;;;5010456;28;20415;-67
2021/12/03 06:20:10;;;;;;;8.75;3.20;;;3.10;99.90;;;;;;5010514;28;20045;-67
2021/12/03 06:22:36;;;;;;;9.45;2.58;;;;;;;;;;5010504;28;20038;-67
2021/12/03 06:25:04;;;;;;;8.77;3.13;;;3.00;99.90;;;;;;5010211;28;20196;-67
2021/12/03 06:27:30;;;;;;;7.30;3.08;;;3.30;99.90;;;;;;5007206;28;20037;-67
2021/12/03 06:29:56;;;;;;;10.68;3.33;;;3.30;99.90;;;;;;5005242;28;20050;-67
2021/12/03 06:32:23;;;;;;;8.48;3.25;;;3.10;99.90;;;;;;5010188;28;20459;-67
2021/12/03 06:34:49;;;;;;;10.02;3.20;;;;;;;;;;5009010;28;20145;-67
2021/12/03 06:37:15;;;;;;;8.50;2.90;;;;;;;;;;5003425;28;20049;-67
2021/12/03 06:39:41;;;;;;;10.23;3.17;;;;;;;;;;5010638;28;20042;-66
2021/12/03 06:42:07;;;;;;;11.82;3.58;;;;;;;;;;4995289;28;20043;-67
2021/12/03 06:44:34;;;;;;;11.50;2.88;;;;;;;;;;4979705;28;20386;-67
2021/12/03 06:47:02;;;;;;;10.30;3.17;;;;;;;;;;4977437;28;20034;-67
2021/12/03 06:49:29;;;;;;;9.90;3.10;;;;;;;;;;4983842;28;20529;-67
2021/12/03 06:52:02;;;;;;;13.15;3.90;;;;;;;;;;4978806;28;20042;-67
2021/12/03 06:54:33;;;;;;;11.10;4.00;;;;;;;;;;4981374;28;20050;-67
2021/12/03 06:57:03;;;;;;;9.77;4.32;;;;;;;;;;4980656;28;20042;-67
2021/12/03 06:59:29;;;;;;;13.55;5.32;;;;;;;;;;4981549;28;20096;-66
2021/12/03 07:01:55;;;;;;;11.23;5.32;;;;;;;;;;4993507;28;20034;-67
2021/12/03 07:04:21;;;;;;;16.58;5.47;;;;;;;;;;4989279;28;20042;-66
2021/12/03 07:06:51;;;;;;;12.38;6.00;;;;;;;;;;4995195;28;20044;-67
2021/12/03 07:09:17;;;;;;;18.20;6.18;;;;;;;;;;5010431;28;20034;-67
2021/12/03 07:11:44;;;;;;;13.98;6.25;;;;;;;;;;5004989;28;20042;-66
2021/12/03 07:14:10;;;;;;;16.63;6.47;;;;;;;;;;5008209;28;20038;-67
2021/12/03 07:16:39;;;;;;;21.70;8.15;;;3.90;99.90;;;;;;5009992;28;20046;-67
2021/12/03 07:19:08;;;;;;;12.35;6.93;;;;;;;;;;5010470;28;20046;-66
2021/12/03 07:21:33;;;;;;;14.10;6.35;;;3.70;99.90;;;;;;5010837;28;20068;-67
2021/12/03 07:23:59;;;;;;;11.85;5.88;;;;;;;;;;5014069;28;20042;-67
2021/12/03 07:26:25;;;;;;;12.93;6.57;;;;;;;;;;5009688;28;20172;-67
2021/12/03 07:28:52;;;;;;;13.02;5.53;;;3.80;99.90;;;;;;5008201;28;20111;-67
2021/12/03 07:31:19;;;;;;;10.75;5.53;;;;;;;;;;5003492;28;20046;-66
2021/12/03 07:33:46;;;;;;;14.07;5.40;;;;;;;;;;4999197;28;20117;-66
2021/12/03 07:36:14;;;;;;;11.63;4.55;;;3.90;99.90;;;;;;4983449;28;20050;-66
2021/12/03 07:38:40;;;;;;;10.05;3.78;;;4.00;99.90;;;;;;5011816;28;20038;-67
2021/12/03 07:41:06;;;;;;;8.52;3.20;;;4.00;99.90;;;;;;5012348;28;20050;-66
2021/12/03 07:43:34;;;;;;;11.27;3.85;;;;;;;;;;5004329;28;20081;-66
2021/12/03 07:46:02;;;;;;;8.07;3.42;;;4.00;99.90;;;;;;5012844;28;20116;-66
2021/12/03 07:48:27;;;;;;;9.68;3.55;;;;;;;;;;5008067;28;20034;-65
2021/12/03 07:50:56;;;;;;;15.05;5.60;;;;;;;;;;5012187;28;20057;-66
2021/12/03 07:53:22;;;;;;;11.20;4.30;;;;;;;;;;5013419;28;20607;-67
2021/12/03 07:55:48;;;;;;;9.25;3.08;;;;;;;;;;5011697;28;20046;-66
2021/12/03 07:58:18;;;;;;;7.97;3.00;;;;;;;;;;5013016;28;20408;-66
2021/12/03 08:00:45;;;;;;;9.77;3.50;;;;;;;;;;5011867;28;20046;-66
2021/12/03 08:03:12;;;;;;;11.00;3.75;;;;;;;;;;5006255;28;20289;-66
2021/12/03 08:05:38;;;;;;;10.60;3.00;;;4.00;99.90;;;;;;5024227;28;20053;-66
2021/12/03 08:08:05;;;;;;;10.90;2.70;;;4.10;99.90;;;;;;5010244;28;20492;-66
2021/12/03 08:10:35;;;;;;;10.70;3.42;;;;;;;;;;5013072;28;20101;-67
2021/12/03 08:13:01;;;;;;;11.27;3.70;;;;;;;;;;5013115;28;20492;-66
2021/12/03 08:15:27;;;;;;;11.60;3.03;;;4.10;99.90;;;;;;5012535;28;20519;-66
2021/12/03 08:17:56;;;;;;;10.20;3.53;;;;;;;;;;4991332;28;20038;-66
2021/12/03 08:20:21;;;;;;;8.93;3.08;;;4.30;99.90;;;;;;5012545;28;20040;-66
2021/12/03 08:22:47;;;;;;;8.90;3.08;;;;;;;;;;5010332;28;20030;-66
2021/12/03 08:25:13;;;;;;;9.75;3.00;;;4.30;99.90;;;;;;5010248;28;20125;-66
2021/12/03 08:27:40;;;;;;;7.30;3.00;;;;;;;;;;5013250;28;20046;-66
2021/12/03 08:30:09;;;;;;;9.57;2.78;;;;;;;;;;5012604;28;20056;-66
2021/12/03 08:32:35;;;;;;;9.65;3.30;;;;;;;;;;5012969;28;20046;-66
2021/12/03 08:35:00;;;;;;;11.82;3.47;;;4.40;99.90;;;;;;5011518;28;20127;-66
2021/12/03 08:37:26;;;;;;;11.15;3.22;;;;;;;;;;5006522;28;20130;-66
2021/12/03 08:39:52;;;;;;;9.00;2.80;;;;;;;;;;5000090;28;20046;-66
2021/12/03 08:42:18;;;;;;;12.40;4.07;;;;;;;;;;5007698;28;20037;-66
2021/12/03 08:44:50;;;;;;;11.93;2.85;;;;;;;;;;5009200;28;20125;-67
2021/12/03 08:47:17;;;;;;;9.55;2.58;;;;;;;;;;4981468;28;20045;-66
2021/12/03 08:49:49;;;;;;;7.55;2.60;;;4.50;99.90;;;;;;4989403;28;20054;-67
2021/12/03 08:57:27;;;;;;;9.30;2.75;;;;;;;;;;4991918;28;20050;-66
2021/12/03 08:59:57;;;;;;;8.07;2.13;;;;;;;;;;4993029;28;20269;-66
2021/12/03 09:02:23;;;;;;;14.20;3.53;;;;;;;;;;4992567;28;20118;-66
2021/12/03 09:04:52;;;;;;;13.40;2.60;;;;;;;;;;4991893;28;20042;-66
2021/12/03 09:07:18;;;;;;;10.02;2.42;;;4.50;99.90;;;;;;4992882;28;20581;-67
2021/12/03 09:09:44;;;;;;;8.75;2.42;;;;;;;;;;4993173;28;20117;-66
2021/12/03 09:12:11;;;;;;;7.53;2.80;;;;;;;;;;4991250;28;20049;-66
2021/12/03 09:14:43;;;;;;;7.65;2.03;;;4.70;99.90;;;;;;4990702;28;20057;-66
2021/12/03 09:17:26;;;;;;;6.47;1.90;;;4.70;99.90;;;;;;4991579;28;20532;-66
2021/12/03 09:22:35;;;;;;;10.23;2.08;;;4.70;99.90;;;;;;4992483;28;20046;-66
2021/12/03 09:25:05;;;;;;;7.55;2.10;;;;;;;;;;4992249;28;20042;-66
2021/12/03 09:27:31;;;;;;;10.98;2.47;;;;;;;;;;4992314;28;20121;-66
2021/12/03 09:29:57;;;;;;;11.27;2.47;;;;;;;;;;4991696;28;20042;-66
2021/12/03 09:32:30;;;;;;;11.18;2.45;;;5.30;99.90;;;;;;4992936;28;20034;-66
2021/12/03 09:34:56;;;;;;;11.57;3.10;;;4.80;99.90;;;;;;4990408;28;20508;-66
2021/12/03 09:37:22;;;;;;;8.20;2.60;;;;;;;;;;4992542;28;20070;-66
2021/12/03 09:39:48;;;;;;;11.82;4.07;;;;;;;;;;4992128;28;20046;-66
2021/12/03 09:42:16;;;;;;;12.00;3.53;;;;;;;;;;4991996;28;20053;-66
2021/12/03 09:44:44;;;;;;;7.82;2.72;;;4.60;99.90;;;;;;4999998;28;20064;-66
2021/12/03 09:47:11;;;;;;;12.10;3.78;;;5.40;99.90;;;;;;5010596;28;20049;-65
2021/12/03 09:49:38;;;;;;;11.07;2.95;;;4.90;99.90;;;;;;5011306;28;20407;-64
2021/12/03 09:54:41;;;;;;;;;;;;;;;;;;5011314;28;20413;-64
2021/12/03 09:57:10;;;;;;;11.18;3.42;;;5.50;99.90;;;;;;5011397;28;19972;-64
2021/12/03 10:02:36;;;;;;;14.57;5.80;;;5.10;99.90;;;;;;5011495;28;20121;-64
2021/12/03 10:11:02;;;;;;;12.20;4.22;;;5.20;99.90;;;;;;4981291;28;20053;-64
2021/12/03 10:13:06;;;;;;;11.73;3.53;;;5.20;99.90;;;;;;4978668;28;20112;-65
2021/12/03 10:15:35;;;;;;;10.43;3.40;;;;;;;;;;4991541;28;20130;-65
2021/12/03 10:20:55;;;;;;;8.18;2.97;;;5.10;99.90;;;;;;4991821;28;20042;-64
2021/12/03 10:34:11;;;;;;;13.45;3.50;;;;;;;;;;4991477;28;20046;-66
2021/12/03 10:46:54;;;;;;;15.38;4.15;;;;;;;;;;5010841;28;20409;-66
2021/12/03 10:57:53;;;;;;;12.73;5.65;;;4.40;99.90;;;;;;5013748;28;20125;-65
2021/12/03 11:15:20;;;;;;;11.63;4.75;;;;;;;;;;5014087;28;20061;-66
2021/12/03 11:26:49;;;;;;;;;;;;;;;;;;4999510;28;20125;-65
2021/12/03 12:04:16;;;;;;;16.63;7.57;;;;;;;;;;4987978;28;20043;-89
2021/12/03 13:19:00;;;;;;;13.90;6.90;;;;;;;;;;5051296;28;20059;-57
2021/12/03 13:57:42;;;;;;;15.77;10.02;;;;;;;;;;5051324;28;20118;-58
2021/12/03 14:33:36;;;;;;;22.48;11.95;;;;;;;;;;5050325;28;20051;-58
2021/12/03 14:45:49;;;;;;;20.60;13.30;;;;;;;;;;5049881;28;20072;-57
2021/12/03 14:48:34;;;;;;;18.83;12.02;;;4.30;99.90;;;;;;5049607;28;20045;-57
2021/12/03 14:51:09;;;;;;;26.20;14.65;;;;;;;;;;5050342;28;20483;-58
2021/12/03 14:56:22;;;;;;;18.10;13.05;;;;;;;;;;5049885;28;19960;-57
2021/12/03 14:59:05;;;;;;;25.08;15.73;;;;;;;;;;5049670;28;20049;-58
2021/12/03 15:07:27;;;;;;;24.95;16.05;;;;;;;;;;5048493;28;20045;-58
2021/12/03 15:09:54;;;;;;;24.90;17.63;;;4.40;99.90;;;;;;5049422;28;20083;-57
2021/12/03 15:12:57;;;;;;;24.63;15.55;;;;;;;;;;5049182;28;20045;-57
2021/12/03 15:26:29;;;;;;;34.28;20.42;;;;;;;;;;5019584;28;20048;-56
2021/12/03 15:33:59;;;;;;;25.88;17.88;;;4.60;99.90;;;;;;5049431;28;20095;-58
2021/12/03 15:58:45;;;;;;;28.58;19.35;;;5.40;99.90;;;;;;5053082;28;20053;-58
2021/12/03 16:04:01;;;;;;;35.40;21.73;;;;;;;;;;5052143;28;20123;-58
2021/12/03 16:09:04;;;;;;;25.33;17.10;;;5.20;99.90;;;;;;5047937;28;20526;-59
2021/12/03 16:27:09;;;;;;;29.00;18.92;;;;;;;;;;5051803;28;20045;-58
2021/12/03 16:53:54;;;;;;;26.02;15.63;;;;;;;;;;5034012;28;20037;-59
2021/12/03 16:56:27;;;;;;;24.65;15.18;;;;;;;;;;5046257;28;20509;-59
2021/12/03 16:58:55;;;;;;;26.98;16.33;;;;;;;;;;5031654;28;20038;-59
2021/12/03 17:04:21;;;;;;;30.52;17.50;;;4.30;99.90;;;;;;5027345;28;20349;-60
2021/12/03 17:17:26;;;;;;;23.85;15.80;;;;;;;;;;5048943;28;20049;-58
2021/12/03 17:52:15;;;;;;;26.10;15.90;;;;;;;;;;5046232;28;20596;-58
2021/12/03 17:57:38;;;;;;;27.52;17.15;;;;;;;;;;5086601;22;20056;-89
2021/12/03 18:03:42;;;;;;;32.05;18.20;;;;;;;;;;5078626;28;20418;-87
2021/12/03 19:00:08;;;;;;;43.72;24.15;;;;;;;;;;5043367;28;20149;-87
2021/12/03 19:02:39;;;;;;;40.90;23.58;;;;;;;;;;5027819;28;20036;-91
2021/12/03 19:08:32;;;;;;;45.38;25.75;;;;;;;;;;5042300;28;20038;-89
2021/12/03 19:11:11;;;;;;;44.70;24.67;;;;;;;;;;5032718;28;20528;-89
2021/12/03 19:13:43;;;;;;;47.72;25.55;;;;;;;;;;5024248;28;20441;-89
2021/12/03 19:16:11;;;;;;;50.40;26.05;;;;;;;;;;5039187;22;20084;-61
2021/12/03 19:18:43;;;;;;;51.17;27.58;;;;;;;;;;5058235;28;20071;-61
2021/12/03 19:21:12;;;;;;;49.13;28.13;;;;;;;;;;5065785;28;20342;-61
2021/12/03 19:23:38;;;;;;;51.60;29.77;;;;;;;;;;5066122;28;20503;-62
2021/12/03 19:26:04;;;;;;;61.45;30.90;;;;;;;;;;5068922;28;20043;-60
2021/12/03 19:28:32;;;;;;;55.58;30.38;;;5.70;99.90;;;;;;5068127;28;20036;-62
2021/12/03 19:30:58;;;;;;;51.90;28.33;;;;;;;;;;5064872;28;20047;-63
2021/12/03 19:33:24;;;;;;;61.67;31.58;;;;;;;;;;5065280;28;20297;-62
2021/12/03 19:35:50;;;;;;;63.70;32.58;;;5.50;99.90;;;;;;5066072;28;20048;-62
2021/12/03 19:38:18;;;;;;;62.28;33.03;;;;;;;;;;5067406;28;20529;-61
2021/12/03 19:40:55;;;;;;;69.07;34.55;;;5.50;99.90;;;;;;5059152;28;20040;-63
2021/12/03 19:43:29;;;;;;;66.78;33.47;;;;;;;;;;5067975;28;20166;-62
2021/12/03 19:46:00;;;;;;;66.68;31.75;;;;;;;;;;5066327;28;20068;-62
2021/12/03 19:48:35;;;;;;;68.47;34.03;;;;;;;;;;5059508;28;20040;-62
2021/12/03 19:51:01;;;;;;;80.82;37.85;;;;;;;;;;5060194;28;20086;-63
2021/12/03 19:53:33;;;;;;;80.47;36.50;;;;;;;;;;5042449;28;20037;-63
2021/12/03 19:55:59;;;;;;;76.43;37.60;;;;;;;;;;5028344;28;20795;-62
2021/12/03 19:58:25;;;;;;;76.68;39.00;;;;;;;;;;5059234;28;20166;-61
2021/12/03 20:00:51;;;;;;;222.90;59.20;;;5.30;99.90;;;;;;5038481;28;20047;-59
2021/12/03 20:03:17;;;;;;;79.75;37.55;;;;;;;;;;5056426;28;20516;-60
2021/12/03 20:05:43;;;;;;;80.40;35.33;;;5.40;99.90;;;;;;5062249;28;20033;-60
2021/12/03 20:08:09;;;;;;;67.65;35.55;;;5.40;99.90;;;;;;5062070;28;20127;-60
2021/12/03 20:10:46;;;;;;;67.95;35.40;;;5.00;99.90;;;;;;5061245;28;20032;-59
2021/12/03 20:13:12;;;;;;;73.88;36.63;;;5.40;99.90;;;;;;5066249;28;20132;-60
2021/12/03 20:15:48;;;;;;;67.07;32.38;;;5.40;99.90;;;;;;5058481;28;20047;-59
2021/12/03 20:18:28;;;;;;;87.28;37.78;;;5.40;99.90;;;;;;5064136;28;20076;-60
2021/12/03 20:20:58;;;;;;;83.10;37.03;;;;;;;;;;5063846;28;20040;-60
2021/12/03 20:28:39;;;;;;;92.57;40.38;;;;;;;;;;5065643;28;20045;-61
2021/12/03 20:31:07;;;;;;;83.22;38.80;;;;;;;;;;5065470;28;20044;-60
2021/12/03 20:33:56;;;;;;;71.88;34.35;;;5.30;99.90;;;;;;5065142;28;20067;-60
2021/12/03 20:36:41;;;;;;;80.82;37.97;;;;;;;;;;5066962;28;20044;-58
2021/12/03 20:39:32;;;;;;;66.05;32.72;;;5.20;99.90;;;;;;5065909;28;20045;-59
2021/12/03 20:46:58;;;;;;;81.70;37.15;;;5.30;99.90;;;;;;5064763;28;20131;-58
2021/12/03 20:52:07;;;;;;;78.03;36.22;;;;;;;;;;5066261;28;20052;-61
2021/12/03 20:57:10;;;;;;;71.93;36.05;;;;;;;;;;5064834;28;20072;-64
2021/12/03 21:07:57;;;;;;;82.22;36.03;;;5.50;99.90;;;;;;5061476;28;20044;-59
2021/12/03 21:08:58;;;;;;;69.05;34.42;;;5.80;99.90;;;;;;5066580;28;20212;-61
2021/12/03 21:11:20;;;;;;;84.03;39.10;;;5.40;99.90;;;;;;5054620;28;20783;-62
2021/12/03 21:13:48;;;;;;;77.45;35.42;;;;;;;;;;5057904;28;20511;-61
2021/12/03 21:16:29;;;;;;;63.47;32.33;;;5.30;99.90;;;;;;5061706;28;20577;-62
2021/12/03 21:21:33;;;;;;;82.65;36.38;;;;;;;;;;5047894;28;20510;-62
2021/12/03 21:24:01;;;;;;;106.82;41.15;;;;;;;;;;5049298;28;20071;-62
2021/12/03 21:26:30;;;;;;;86.53;38.15;;;5.00;99.90;;;;;;5062930;28;20037;-62
2021/12/03 21:29:13;;;;;;;76.93;36.10;;;5.30;99.90;;;;;;5056111;28;20500;-62
2021/12/03 21:31:49;;;;;;;83.10;38.40;;;;;;;;;;5058555;28;20074;-62
2021/12/03 21:42:13;;;;;;;86.30;37.35;;;;;;;;;;5054471;28;20106;-61
2021/12/03 21:44:39;;;;;;;89.75;38.85;;;;;;;;;;5059891;28;20067;-62
2021/12/03 21:47:05;;;;;;;91.20;39.92;;;;;;;;;;5054510;28;20033;-62
2021/12/03 21:49:31;;;;;;;92.90;39.42;;;;;;;;;;5062680;28;20482;-62
2021/12/03 21:51:57;;;;;;;97.90;39.42;;;;;;;;;;5038581;28;20032;-62
2021/12/03 21:54:23;;;;;;;96.72;41.45;;;;;;;;;;5062263;28;20087;-62
2021/12/03 21:56:54;;;;;;;90.80;36.78;;;;;;;;;;5064807;28;20132;-62
2021/12/03 21:59:20;;;;;;;85.30;38.80;;;;;;;;;;5062622;28;20056;-62
2021/12/03 22:01:47;;;;;;;92.55;38.40;;;;;;;;;;5062352;28;20045;-62
2021/12/03 22:04:12;;;;;;;98.68;39.75;;;5.20;99.90;;;;;;5061457;28;20044;-62
2021/12/03 22:06:40;;;;;;;103.07;42.00;;;;;;;;;;5058976;28;20407;-62
2021/12/03 22:09:06;;;;;;;90.68;38.78;;;;;;;;;;5038651;28;20348;-62
2021/12/03 22:11:32;;;;;;;97.57;37.72;;;;;;;;;;5060422;28;20041;-62
2021/12/03 22:13:58;;;;;;;100.38;40.60;;;;;;;;;;5056161;28;20098;-62
2021/12/03 22:16:24;;;;;;;98.68;39.25;;;;;;;;;;5066221;28;20043;-63